createdAt,value
2019-02-12T00:01:05.401Z,2.70
2019-02-12T00:03:35.196Z,2.70
2019-02-12T00:06:05.086Z,2.70
2019-02-12T00:08:34.841Z,2.70
2019-02-12T00:11:04.513Z,2.70
2019-02-12T00:13:36.103Z,2.70
2019-02-12T00:16:05.579Z,2.70
2019-02-12T00:18:35.303Z,2.70
2019-02-12T00:21:09.197Z,2.70
2019-02-12T00:23:36.775Z,2.60
2019-02-12T00:26:06.687Z,2.70
2019-02-12T00:28:36.516Z,2.70
2019-02-12T00:31:06.271Z,2.60
2019-02-12T00:33:36.199Z,2.70
2019-02-12T00:36:05.993Z,2.60
2019-02-12T00:38:35.832Z,2.60
2019-02-12T00:41:05.638Z,2.70
2019-02-12T00:43:35.612Z,2.60
2019-02-12T00:46:05.375Z,2.60
2019-02-12T00:48:35.092Z,2.50
2019-02-12T00:51:04.800Z,2.50
2019-02-12T00:53:34.531Z,2.50
2019-02-12T00:56:04.232Z,2.50
2019-02-12T00:58:33.975Z,2.50
2019-02-12T01:01:03.840Z,2.50
2019-02-12T01:03:33.568Z,2.50
2019-02-12T01:06:03.243Z,2.50
2019-02-12T01:08:33.173Z,2.50
2019-02-12T01:11:02.893Z,2.50
2019-02-12T01:13:32.792Z,2.50
2019-02-12T01:16:02.736Z,2.50
2019-02-12T01:18:32.643Z,2.50
2019-02-12T01:21:02.347Z,2.50
2019-02-12T01:23:32.007Z,2.50
2019-02-12T01:26:01.989Z,2.50
2019-02-12T01:28:31.664Z,2.50
2019-02-12T01:31:01.573Z,2.50
2019-02-12T01:33:31.319Z,2.60
2019-02-12T01:36:01.008Z,2.60
2019-02-12T01:38:30.733Z,2.60
2019-02-12T01:41:00.668Z,2.70
2019-02-12T01:43:30.546Z,2.70
2019-02-12T01:46:00.239Z,2.70
2019-02-12T01:48:30.206Z,2.70
2019-02-12T01:51:00.064Z,2.60
2019-02-12T01:53:30.022Z,2.60
2019-02-12T01:56:00.020Z,2.50
2019-02-12T01:58:29.596Z,2.50
2019-02-12T02:00:59.199Z,2.50
2019-02-12T02:03:28.771Z,2.50
2019-02-12T02:05:58.348Z,2.50
2019-02-12T02:08:27.974Z,2.50
2019-02-12T02:10:57.539Z,2.60
2019-02-12T02:13:27.149Z,2.60
2019-02-12T02:15:56.751Z,2.70
2019-02-12T02:18:26.335Z,2.60
2019-02-12T02:20:55.919Z,2.70
2019-02-12T02:23:25.546Z,2.70
2019-02-12T02:25:55.113Z,2.80
2019-02-12T02:28:24.721Z,2.80
2019-02-12T02:30:54.305Z,2.80
2019-02-12T02:33:23.919Z,2.80
2019-02-12T02:35:53.740Z,2.90
2019-02-12T02:38:23.312Z,3.00
2019-02-12T02:40:52.915Z,3.00
2019-02-12T02:43:22.487Z,3.00
2019-02-12T02:45:52.058Z,2.90
2019-02-12T02:48:21.657Z,2.90
2019-02-12T02:50:51.258Z,3.00
2019-02-12T02:53:20.827Z,3.00
2019-02-12T02:55:50.371Z,3.00
2019-02-12T02:58:19.951Z,3.00
2019-02-12T03:00:49.546Z,2.90
2019-02-12T03:03:19.114Z,3.00
2019-02-12T03:05:48.679Z,3.00
2019-02-12T03:08:18.313Z,3.00
2019-02-12T03:10:47.956Z,3.00
2019-02-12T03:13:17.515Z,3.00
2019-02-12T03:15:47.088Z,3.00
2019-02-12T03:18:16.676Z,2.90
2019-02-12T03:20:46.275Z,2.90
2019-02-12T03:23:15.872Z,2.90
2019-02-12T03:25:45.415Z,2.90
2019-02-12T03:28:14.993Z,2.80
2019-02-12T03:30:44.622Z,2.80
2019-02-12T03:33:14.208Z,2.90
2019-02-12T03:35:43.800Z,2.90
2019-02-12T03:38:13.407Z,2.90
2019-02-12T03:40:42.979Z,2.90
2019-02-12T03:43:12.548Z,2.90
2019-02-12T03:45:42.135Z,2.90
2019-02-12T03:48:11.711Z,2.90
2019-02-12T03:50:41.334Z,2.90
2019-02-12T03:53:10.885Z,2.90
2019-02-12T03:55:40.443Z,2.90
2019-02-12T03:58:10.028Z,2.80
2019-02-12T04:00:39.603Z,2.80
2019-02-12T04:03:09.351Z,2.80
2019-02-12T04:05:39.939Z,2.80
2019-02-12T04:08:09.716Z,2.80
2019-02-12T04:10:39.271Z,2.80
2019-02-12T04:13:09.073Z,2.80
2019-02-12T04:15:38.658Z,2.90
2019-02-12T04:18:08.251Z,2.90
2019-02-12T04:20:37.831Z,2.90
2019-02-12T04:23:07.396Z,2.90
2019-02-12T04:25:36.991Z,2.90
2019-02-12T04:28:06.559Z,2.90
2019-02-12T04:30:37.849Z,2.90
2019-02-12T04:33:07.415Z,2.90
2019-02-12T04:35:37.027Z,2.90
2019-02-12T04:38:06.615Z,2.80
2019-02-12T04:40:36.199Z,2.80
2019-02-12T04:43:05.796Z,2.80
2019-02-12T04:45:35.368Z,2.80
2019-02-12T04:48:04.939Z,2.80
2019-02-12T04:50:34.527Z,2.80
2019-02-12T04:53:04.087Z,2.80
2019-02-12T04:55:33.659Z,2.80
2019-02-12T04:58:03.251Z,2.70
2019-02-12T05:00:32.820Z,2.70
2019-02-12T05:03:02.418Z,2.70
2019-02-12T05:05:32.005Z,2.70
2019-02-12T05:08:01.605Z,2.70
2019-02-12T05:10:33.836Z,2.70
2019-02-12T05:13:03.469Z,2.70
2019-02-12T05:15:33.040Z,2.70
2019-02-12T05:18:02.645Z,2.80
2019-02-12T05:20:32.211Z,2.80
2019-02-12T05:23:01.771Z,2.80
2019-02-12T05:25:31.949Z,2.70
2019-02-12T05:28:01.511Z,2.70
2019-02-12T05:30:31.092Z,2.70
2019-02-12T05:33:00.659Z,2.60
2019-02-12T05:35:30.223Z,2.60
2019-02-12T05:37:59.834Z,2.60
2019-02-12T05:40:29.462Z,2.60
2019-02-12T05:42:58.960Z,2.70
2019-02-12T05:45:28.561Z,2.70
2019-02-12T05:47:58.806Z,2.70
2019-02-12T05:50:28.353Z,2.60
2019-02-12T05:52:58.297Z,2.70
2019-02-12T05:55:27.833Z,2.70
2019-02-12T05:57:57.401Z,2.70
2019-02-12T06:00:28.948Z,2.70
2019-02-12T06:02:58.500Z,2.70
2019-02-12T06:05:29.506Z,2.70
2019-02-12T06:07:59.413Z,2.70
2019-02-12T06:10:29.102Z,2.80
2019-02-12T06:12:59.048Z,2.80
2019-02-12T06:15:28.736Z,2.70
2019-02-12T06:17:58.316Z,2.80
2019-02-12T06:20:28.291Z,2.80
2019-02-12T06:23:03.871Z,2.80
2019-02-12T06:25:29.184Z,2.80
2019-02-12T06:27:58.932Z,2.80
2019-02-12T06:30:28.588Z,2.70
2019-02-12T06:33:06.936Z,2.60
2019-02-12T06:35:32.951Z,2.60
2019-02-12T06:38:02.739Z,2.60
2019-02-12T06:40:32.639Z,2.60
2019-02-12T06:43:03.527Z,2.60
2019-02-12T06:45:33.221Z,2.60
2019-02-12T06:48:02.963Z,2.60
2019-02-12T06:50:32.967Z,2.60
2019-02-12T06:53:12.359Z,2.60
2019-02-12T06:55:36.288Z,2.60
2019-02-12T06:58:06.072Z,2.60
2019-02-12T07:00:36.041Z,2.60
2019-02-12T07:03:16.631Z,2.60
2019-02-12T07:06:09.339Z,2.60
2019-02-12T07:09:09.133Z,2.60
2019-02-12T07:12:17.358Z,2.60
2019-02-12T07:14:52.308Z,2.60
2019-02-12T07:18:21.186Z,2.70
2019-02-12T07:21:21.242Z,2.70
2019-02-12T07:24:26.857Z,2.70
2019-02-12T07:27:54.748Z,2.60
2019-02-12T07:31:07.721Z,2.60
2019-02-12T07:34:21.083Z,2.60
2019-02-12T07:37:18.849Z,2.60
2019-02-12T07:40:15.380Z,2.60
2019-02-12T07:43:35.079Z,2.70
2019-02-12T07:46:33.785Z,2.70
2019-02-12T07:49:39.168Z,2.70
2019-02-12T07:52:58.731Z,2.80
2019-02-12T07:56:08.036Z,2.80
2019-02-12T07:59:34.888Z,2.80
2019-02-12T08:02:36.163Z,2.90
2019-02-12T08:05:43.964Z,2.90
2019-02-12T08:08:50.388Z,2.90
2019-02-12T08:12:04.079Z,2.90
2019-02-12T08:15:11.904Z,2.80
2019-02-12T08:17:53.185Z,2.80
2019-02-12T08:21:22.115Z,2.70
2019-02-12T08:24:15.817Z,2.80
2019-02-12T08:27:29.383Z,2.80
2019-02-12T08:30:39.808Z,2.80
2019-02-12T08:33:45.613Z,2.80
2019-02-12T08:36:52.228Z,2.70
2019-02-12T08:40:01.538Z,2.80
2019-02-12T08:42:41.681Z,2.80
2019-02-12T08:45:50.891Z,2.90
2019-02-12T08:48:54.339Z,2.90
2019-02-12T08:52:11.234Z,2.90
2019-02-12T08:55:15.621Z,3.00
2019-02-12T08:58:23.941Z,3.00
2019-02-12T09:01:01.863Z,3.10
2019-02-12T09:04:27.470Z,3.20
2019-02-12T09:07:35.421Z,3.30
2019-02-12T09:10:49.007Z,3.30
2019-02-12T09:14:05.435Z,3.30
2019-02-12T09:16:57.240Z,3.10
2019-02-12T09:19:34.760Z,3.10
2019-02-12T09:22:34.448Z,3.10
2019-02-12T09:25:33.939Z,3.00
2019-02-12T09:28:25.444Z,3.00
2019-02-12T09:31:40.729Z,3.00
2019-02-12T09:35:04.723Z,3.00
2019-02-12T09:37:59.241Z,3.00
2019-02-12T09:41:19.026Z,2.80
2019-02-12T09:44:28.840Z,2.90
2019-02-12T09:47:36.575Z,2.80
2019-02-12T09:50:53.420Z,2.80
2019-02-12T09:54:08.667Z,2.80
2019-02-12T09:57:09.732Z,2.70
2019-02-12T10:00:00.758Z,2.70
2019-02-12T10:02:44.139Z,2.60
2019-02-12T10:05:52.084Z,2.60
2019-02-12T10:09:18.103Z,2.70
2019-02-12T10:12:25.537Z,2.80
2019-02-12T10:15:29.577Z,2.70
2019-02-12T10:18:42.715Z,2.70
2019-02-12T10:21:34.142Z,2.70
2019-02-12T10:24:19.679Z,2.70
2019-02-12T10:27:02.054Z,2.80
2019-02-12T10:29:47.267Z,2.90
2019-02-12T10:32:16.781Z,2.90
2019-02-12T10:34:46.748Z,2.90
2019-02-12T10:37:16.520Z,3.00
2019-02-12T10:39:46.312Z,3.00
2019-02-12T10:42:16.428Z,2.90
2019-02-12T10:44:46.448Z,2.90
2019-02-12T10:47:16.108Z,3.00
2019-02-12T10:49:46.131Z,3.00
2019-02-12T10:52:16.051Z,3.00
2019-02-12T10:54:45.907Z,3.10
2019-02-12T10:57:15.976Z,3.00
2019-02-12T10:59:45.675Z,3.10
2019-02-12T11:02:15.580Z,3.10
2019-02-12T11:04:45.294Z,3.10
2019-02-12T11:07:14.943Z,3.20
2019-02-12T11:09:44.701Z,3.20
2019-02-12T11:12:14.608Z,3.20
2019-02-12T11:14:44.880Z,3.20
2019-02-12T11:17:14.646Z,3.10
2019-02-12T11:19:44.374Z,3.10
2019-02-12T11:22:14.047Z,3.00
2019-02-12T11:24:45.106Z,3.00
2019-02-12T11:27:14.920Z,3.00
2019-02-12T11:29:44.601Z,2.80
2019-02-12T11:32:14.357Z,2.80
2019-02-12T11:34:44.275Z,2.70
2019-02-12T11:37:14.136Z,2.70
2019-02-12T11:39:44.196Z,2.70
2019-02-12T11:42:14.143Z,2.70
2019-02-12T11:44:43.840Z,2.70
2019-02-12T11:47:13.729Z,2.70
2019-02-12T11:49:43.485Z,2.70
2019-02-12T11:52:13.922Z,2.70
2019-02-12T11:54:44.069Z,2.70
2019-02-12T11:57:15.757Z,2.60
2019-02-12T11:59:47.558Z,2.60
2019-02-12T12:02:18.392Z,2.70
2019-02-12T12:04:48.242Z,2.70
2019-02-12T12:07:18.995Z,2.70
2019-02-12T12:09:48.832Z,2.70
2019-02-12T12:12:20.853Z,2.70
2019-02-12T12:14:50.561Z,2.80
2019-02-12T12:17:20.253Z,2.80
2019-02-12T12:19:49.988Z,2.90
2019-02-12T12:22:19.655Z,2.90
2019-02-12T12:24:51.679Z,3.00
2019-02-12T12:27:22.588Z,3.00
2019-02-12T12:29:52.299Z,3.00
2019-02-12T12:32:22.030Z,3.00
2019-02-12T12:34:51.896Z,3.00
2019-02-12T12:37:21.875Z,3.00
2019-02-12T12:39:51.756Z,3.00
2019-02-12T12:42:21.492Z,3.00
2019-02-12T12:44:52.226Z,3.00
2019-02-12T12:47:22.103Z,3.00
2019-02-12T12:49:52.126Z,3.00
2019-02-12T12:52:21.934Z,3.10
2019-02-12T12:54:59.427Z,3.00
2019-02-12T12:57:23.248Z,3.00
2019-02-12T12:59:52.920Z,3.00
2019-02-12T13:02:22.600Z,3.00
2019-02-12T13:04:52.228Z,3.10
2019-02-12T13:07:22.115Z,3.10
2019-02-12T13:09:51.831Z,3.10
2019-02-12T13:12:21.774Z,3.20
2019-02-12T13:14:51.663Z,3.20
2019-02-12T13:17:21.523Z,3.20
2019-02-12T13:19:51.513Z,3.20
2019-02-12T13:22:21.408Z,3.30
2019-02-12T13:24:51.272Z,3.30
2019-02-12T13:27:21.267Z,3.30
2019-02-12T13:29:51.159Z,3.30
2019-02-12T13:32:21.027Z,3.40
2019-02-12T13:34:50.991Z,3.40
2019-02-12T13:37:20.937Z,3.40
2019-02-12T13:39:50.635Z,3.40
2019-02-12T13:42:20.551Z,3.40
2019-02-12T13:44:50.243Z,3.40
2019-02-12T13:47:20.142Z,3.30
2019-02-12T13:49:50.084Z,3.20
2019-02-12T13:52:19.921Z,3.20
2019-02-12T13:54:49.691Z,3.20
2019-02-12T13:57:19.593Z,3.20
2019-02-12T13:59:49.540Z,3.20
2019-02-12T14:02:19.427Z,3.30
2019-02-12T14:04:50.739Z,3.30
2019-02-12T14:07:20.499Z,3.30
2019-02-12T14:09:50.432Z,3.30
2019-02-12T14:12:21.139Z,3.30
2019-02-12T14:14:50.856Z,3.30
2019-02-12T14:17:20.591Z,3.30
2019-02-12T14:19:50.465Z,3.30
2019-02-12T14:22:20.210Z,3.30
2019-02-12T14:24:50.005Z,3.20
2019-02-12T14:27:20.237Z,3.20
2019-02-12T14:29:50.152Z,3.20
2019-02-12T14:32:20.084Z,3.30
2019-02-12T14:34:49.785Z,3.30
2019-02-12T14:37:19.643Z,3.30
2019-02-12T14:39:49.300Z,3.30
2019-02-12T14:42:19.312Z,3.30
2019-02-12T14:44:49.004Z,3.30
2019-02-12T14:47:18.732Z,3.40
2019-02-12T14:49:48.541Z,3.40
2019-02-12T14:52:18.195Z,3.40
2019-02-12T14:54:47.815Z,3.40
2019-02-12T14:57:17.789Z,3.40
2019-02-12T14:59:47.724Z,3.50
2019-02-12T15:02:17.420Z,3.50
2019-02-12T15:04:47.127Z,3.50
2019-02-12T15:07:17.011Z,3.50
2019-02-12T15:09:46.708Z,3.50
2019-02-12T15:12:16.682Z,3.50
2019-02-12T15:14:46.575Z,3.40
2019-02-12T15:17:16.271Z,3.50
2019-02-12T15:19:46.013Z,3.50
2019-02-12T15:22:15.710Z,3.50
2019-02-12T15:24:45.927Z,3.50
2019-02-12T15:27:15.976Z,3.50
2019-02-12T15:29:45.635Z,3.40
2019-02-12T15:32:15.687Z,3.40
2019-02-12T15:34:45.621Z,3.30
2019-02-12T15:37:15.703Z,3.30
2019-02-12T15:39:45.594Z,3.20
2019-02-12T15:42:15.346Z,3.10
2019-02-12T15:44:47.088Z,3.10
2019-02-12T15:47:16.867Z,3.10
2019-02-12T15:49:46.652Z,3.10
2019-02-12T15:52:16.305Z,3.10
2019-02-12T15:54:46.241Z,3.10
2019-02-12T15:57:15.955Z,3.10
2019-02-12T15:59:45.852Z,3.10
2019-02-12T16:02:15.542Z,3.10
2019-02-12T16:04:48.182Z,3.10
2019-02-12T16:07:17.953Z,3.00
2019-02-12T16:09:47.792Z,3.00
2019-02-12T16:12:17.468Z,3.00
2019-02-12T16:14:47.368Z,3.00
2019-02-12T16:17:17.282Z,3.00
2019-02-12T16:19:49.027Z,3.00
2019-02-12T16:22:20.260Z,3.00
2019-02-12T16:24:50.124Z,3.10
2019-02-12T16:27:19.823Z,3.10
2019-02-12T16:29:49.500Z,3.20
2019-02-12T16:32:19.248Z,3.20
2019-02-12T16:34:49.175Z,3.20
2019-02-12T16:37:19.291Z,3.30
2019-02-12T16:39:49.244Z,3.30
2019-02-12T16:42:19.099Z,3.30
2019-02-12T16:44:48.814Z,3.30
2019-02-12T16:47:18.834Z,3.30
2019-02-12T16:49:48.664Z,3.30
2019-02-12T16:52:20.968Z,3.30
2019-02-12T16:54:49.935Z,3.30
2019-02-12T16:57:21.375Z,3.20
2019-02-12T16:59:51.181Z,3.20
2019-02-12T17:02:21.101Z,3.20
2019-02-12T17:04:51.024Z,3.20
2019-02-12T17:07:20.730Z,3.30
2019-02-12T17:09:52.315Z,3.30
2019-02-12T17:12:21.865Z,3.20
2019-02-12T17:14:51.551Z,3.20
2019-02-12T17:17:21.532Z,3.20
2019-02-12T17:19:51.427Z,3.20
2019-02-12T17:22:21.348Z,3.10
2019-02-12T17:24:51.023Z,3.10
2019-02-12T17:27:20.994Z,3.10
2019-02-12T17:29:50.922Z,3.10
2019-02-12T17:32:20.551Z,3.10
2019-02-12T17:34:50.288Z,3.10
2019-02-12T17:37:20.008Z,3.10
2019-02-12T17:39:49.692Z,3.20
2019-02-12T17:42:19.689Z,3.10
2019-02-12T17:44:49.309Z,3.10
2019-02-12T17:47:19.045Z,3.10
2019-02-12T17:49:49.799Z,3.20
2019-02-12T17:52:19.475Z,3.20
2019-02-12T17:54:49.387Z,3.20
2019-02-12T17:57:19.004Z,3.30
2019-02-12T17:59:48.577Z,3.30
2019-02-12T18:02:18.592Z,3.30
2019-02-12T18:04:48.902Z,3.30
2019-02-12T18:07:18.911Z,3.30
2019-02-12T18:09:49.052Z,3.30
2019-02-12T18:12:18.856Z,3.30
2019-02-12T18:14:48.590Z,3.30
2019-02-12T18:17:18.247Z,3.30
2019-02-12T18:19:47.848Z,3.30
2019-02-12T18:22:17.753Z,3.30
2019-02-12T18:24:48.427Z,3.30
2019-02-12T18:27:18.196Z,3.30
2019-02-12T18:29:47.896Z,3.30
2019-02-12T18:32:17.763Z,3.30
2019-02-12T18:34:47.752Z,3.30
2019-02-12T18:37:17.530Z,3.40
2019-02-12T18:39:48.027Z,3.30
2019-02-12T18:42:19.399Z,3.30
2019-02-12T18:44:50.541Z,3.30
2019-02-12T18:47:23.279Z,3.30
2019-02-12T18:49:56.133Z,3.30
2019-02-12T18:52:25.811Z,3.40
2019-02-12T18:54:55.625Z,3.30
2019-02-12T18:57:25.294Z,3.30
2019-02-12T18:59:54.893Z,3.20
2019-02-12T19:02:25.178Z,3.20
2019-02-12T19:04:55.698Z,3.20
2019-02-12T19:07:25.280Z,3.10
2019-02-12T19:09:54.856Z,3.10
2019-02-12T19:12:24.989Z,3.10
2019-02-12T19:14:55.203Z,3.10
2019-02-12T19:17:25.234Z,3.00
2019-02-12T19:19:55.086Z,2.80
2019-02-12T19:22:24.944Z,2.70
2019-02-12T19:24:54.623Z,2.60
2019-02-12T19:27:25.011Z,2.60
2019-02-12T19:29:54.693Z,2.50
2019-02-12T19:32:24.418Z,2.40
2019-02-12T19:34:54.513Z,2.50
2019-02-12T19:37:24.427Z,2.50
2019-02-12T19:39:55.072Z,2.50
2019-02-12T19:42:24.716Z,2.60
2019-02-12T19:44:54.864Z,2.60
2019-02-12T19:47:24.451Z,2.60
2019-02-12T19:49:54.620Z,2.70
2019-02-12T19:52:24.580Z,2.70
2019-02-12T19:54:54.451Z,2.70
2019-02-12T19:57:25.128Z,2.70
2019-02-12T19:59:55.093Z,2.80
2019-02-12T20:02:25.580Z,2.80
2019-02-12T20:04:55.300Z,2.80
2019-02-12T20:07:26.924Z,2.80
2019-02-12T20:09:56.777Z,2.80
2019-02-12T20:12:26.699Z,2.80
2019-02-12T20:14:56.585Z,2.70
2019-02-12T20:17:26.978Z,2.70
2019-02-12T20:19:57.800Z,2.70
2019-02-12T20:22:28.619Z,2.70
2019-02-12T20:24:58.536Z,2.70
2019-02-12T20:27:35.611Z,2.70
2019-02-12T20:29:59.599Z,2.70
2019-02-12T20:32:29.515Z,2.70
2019-02-12T20:34:59.167Z,2.70
2019-02-12T20:37:28.896Z,2.70
2019-02-12T20:39:58.824Z,2.70
2019-02-12T20:42:28.727Z,2.70
2019-02-12T20:44:59.254Z,2.70
2019-02-12T20:47:30.849Z,2.70
2019-02-12T20:50:01.960Z,2.70
2019-02-12T20:52:31.794Z,2.70
2019-02-12T20:55:02.965Z,2.70
2019-02-12T20:57:33.637Z,2.70
2019-02-12T21:00:03.487Z,2.80
2019-02-12T21:02:33.163Z,2.70
2019-02-12T21:05:02.789Z,2.70
2019-02-12T21:07:32.596Z,2.70
2019-02-12T21:10:02.576Z,2.70
2019-02-12T21:12:32.435Z,2.70
2019-02-12T21:15:04.097Z,2.70
2019-02-12T21:17:34.872Z,2.80
2019-02-12T21:20:06.409Z,2.80
2019-02-12T21:22:36.796Z,2.80
2019-02-12T21:25:08.319Z,2.80
2019-02-12T21:27:38.364Z,2.90
2019-02-12T21:30:11.936Z,2.90
2019-02-12T21:32:41.612Z,2.90
2019-02-12T21:35:14.191Z,3.00
2019-02-12T21:37:45.333Z,3.00
2019-02-12T21:40:17.664Z,3.00
2019-02-12T21:42:48.158Z,3.00
2019-02-12T21:45:18.310Z,3.10
2019-02-12T21:47:47.995Z,3.00
2019-02-12T21:50:17.881Z,3.00
2019-02-12T21:52:47.684Z,3.10
2019-02-12T21:55:17.583Z,3.10
2019-02-12T21:57:47.195Z,3.10
2019-02-12T22:00:17.112Z,3.10
2019-02-12T22:02:47.646Z,3.00
2019-02-12T22:05:17.439Z,3.00
2019-02-12T22:07:47.159Z,3.00
2019-02-12T22:10:18.111Z,3.00
2019-02-12T22:12:47.902Z,3.00
2019-02-12T22:15:17.695Z,3.00
2019-02-12T22:17:47.656Z,3.00
2019-02-12T22:20:17.540Z,3.00
2019-02-12T22:22:47.447Z,3.00
2019-02-12T22:25:17.070Z,3.00
2019-02-12T22:27:46.632Z,3.00
2019-02-12T22:30:18.412Z,3.00
2019-02-12T22:32:48.123Z,3.10
2019-02-12T22:35:18.041Z,3.10
2019-02-12T22:37:48.015Z,3.10
2019-02-12T22:40:17.747Z,3.10
2019-02-12T22:42:47.601Z,3.10
2019-02-12T22:45:18.752Z,3.10
2019-02-12T22:47:48.564Z,3.10
2019-02-12T22:50:18.409Z,3.20
2019-02-12T22:52:48.212Z,3.20
2019-02-12T22:55:17.981Z,3.20
2019-02-12T22:57:49.615Z,3.20
2019-02-12T23:00:46.352Z,3.30
2019-02-12T23:03:17.835Z,3.30
2019-02-12T23:05:47.655Z,3.30
2019-02-12T23:08:17.225Z,3.30
2019-02-12T23:10:46.803Z,3.20
2019-02-12T23:13:16.399Z,3.20
2019-02-12T23:15:46.071Z,3.20
2019-02-12T23:18:15.915Z,3.20
2019-02-12T23:20:45.520Z,3.20
2019-02-12T23:23:15.079Z,3.20
2019-02-12T23:25:44.648Z,3.20
2019-02-12T23:28:14.561Z,3.20
2019-02-12T23:30:44.132Z,3.10
2019-02-12T23:33:13.792Z,3.10
2019-02-12T23:35:43.443Z,3.00
2019-02-12T23:38:14.612Z,3.00
2019-02-12T23:40:44.555Z,3.00
2019-02-12T23:43:14.412Z,3.00
2019-02-12T23:45:44.108Z,3.00
2019-02-12T23:48:13.875Z,3.00
2019-02-12T23:50:43.544Z,3.00
2019-02-12T23:53:16.217Z,3.00
2019-02-12T23:55:46.067Z,3.00
2019-02-12T23:58:15.659Z,3.00
